Airfield :







YOU CAN JOIN US ON...

 
LOGIN :

Register | Disclaimer

   EN    FR    IT 

 









Legend :    VFR   Marginal VFR   IFR   Intensive IFR   Very Intensive IFR
Visi :
Ceiling :
>= 8 km
>= 3000ft
5 to 8 km
1000 to 3000 ft
1500m to 5 km
500 to 1000 ft
800 to 1500m
200 to 500 ft
< 800m
< 200 ft
Symbols :   Thunderstorms  Fog  Heavy snow  Heavy precipitations  Wind > 20 kt







- Airport Elevation : 76 ft
- IATA code : PWM


KPWM - Portland International Jetport

CURRENT METAR :
  • 210451Z 00000KT 10SM OVC055 M03/M12 A3022 RMK AO2 PRESFR SLP235 LAST T10281117 410221167

EXPIRED METARs :
  • 210351Z 00000KT 10SM OVC060 M03/M13 A3028 RMK AO2 SLP254 T10281133
  • 210251Z 00000KT 10SM SCT060 OVC080 M03/M14 A3032 RMK AO2 SLP268 T10281139 56033

TAF KPWM
Valid from the 21 at 00:00 until the 22 at 00:00 UTC


202320Z 2100/2124 VRB04KT P6SM SCT070 OVC120
FM210500 10004KT 2SM -SN BR OVC012
FM210900 06005KT 1SM -SN BR OVC004
FM211500 25006KT P6SM SCT020 BKN035
FM211800 28010KT P6SM BKN050 OVC100
KZBW FIR / North America



MET'MAP, your aeronautical weather chart ! - Copyright ORBIFLY December 2007 - Disclaimer

ORBIFLY MET'MAP TEAM :

Programming & Development : Alexandra Zaïnal
Concept & Development : Baudouin d'Aumeries
Co-Development & Prog : Marc-Olivier Méhu
Technical & hardware support : Manuel Goepfert

Contact : metmap@orbifly.com




SOURCES & CREDITS :

   NOAA